createdAt,value
2017-09-30T00:04:36.428Z,101292.99
2017-09-30T00:09:39.391Z,101300.42
2017-09-30T00:14:43.323Z,101291.00
2017-09-30T00:19:47.591Z,101305.20
2017-09-30T00:24:50.577Z,101301.52
2017-09-30T00:29:54.489Z,101300.31
2017-09-30T00:34:57.255Z,101302.77
2017-09-30T00:40:01.313Z,101317.19
2017-09-30T00:45:08.111Z,101313.30
2017-09-30T00:50:11.430Z,101315.89
2017-09-30T00:55:24.612Z,101311.34
2017-09-30T01:00:31.865Z,101316.98
2017-09-30T01:05:39.681Z,101315.13
2017-09-30T01:10:48.598Z,101322.27
2017-09-30T01:15:53.647Z,101341.52
2017-09-30T01:21:02.317Z,101320.30
2017-09-30T01:26:05.747Z,101335.65
2017-09-30T01:31:09.365Z,101319.39
2017-09-30T01:36:12.575Z,101299.88
2017-09-30T01:41:15.776Z,101300.64
2017-09-30T01:46:19.793Z,101300.95
2017-09-30T01:51:24.053Z,101294.27
2017-09-30T01:56:28.851Z,101292.70
2017-09-30T02:01:32.032Z,101277.91
2017-09-30T02:06:34.500Z,101276.04
2017-09-30T02:11:44.045Z,101262.05
2017-09-30T02:16:46.765Z,101265.17
2017-09-30T02:21:49.295Z,101270.91
2017-09-30T02:26:52.005Z,101264.20
2017-09-30T02:31:54.710Z,101261.72
2017-09-30T02:36:57.308Z,101260.91
2017-09-30T02:41:59.869Z,101247.55
2017-09-30T02:47:02.481Z,101240.73
2017-09-30T02:52:05.915Z,101234.20
2017-09-30T02:57:08.483Z,101222.81
2017-09-30T03:02:11.058Z,101212.42
2017-09-30T03:07:13.312Z,101206.75
2017-09-30T03:12:15.992Z,101192.52
2017-09-30T03:17:18.639Z,101190.92
2017-09-30T03:22:21.098Z,101188.47
2017-09-30T03:27:23.693Z,101195.23
2017-09-30T03:32:25.801Z,101200.02
2017-09-30T03:37:30.982Z,101209.55
2017-09-30T03:42:34.721Z,101213.48
2017-09-30T03:47:37.400Z,101220.23
2017-09-30T03:52:40.602Z,101226.56
2017-09-30T03:57:42.912Z,101235.33
2017-09-30T04:02:45.153Z,101229.95
2017-09-30T04:07:47.710Z,101234.06
2017-09-30T04:12:50.049Z,101237.84
2017-09-30T04:17:52.172Z,101232.33
2017-09-30T04:22:54.848Z,101235.22
2017-09-30T04:27:57.454Z,101229.87
2017-09-30T04:32:59.740Z,101227.57
2017-09-30T04:38:02.826Z,101213.55
2017-09-30T04:43:05.995Z,101225.34
2017-09-30T04:48:08.775Z,101228.92
2017-09-30T04:53:11.261Z,101222.96
2017-09-30T04:58:13.340Z,101224.59
2017-09-30T05:03:15.847Z,101225.77
2017-09-30T05:08:18.348Z,101229.96
2017-09-30T05:13:20.646Z,101218.06
2017-09-30T05:18:23.001Z,101225.44
2017-09-30T05:23:25.763Z,101230.73
2017-09-30T05:28:29.164Z,101233.09
2017-09-30T05:33:37.433Z,101221.86
2017-09-30T05:38:40.354Z,101229.42
2017-09-30T05:43:42.968Z,101215.92
2017-09-30T05:48:46.144Z,101217.41
2017-09-30T05:53:49.519Z,101221.11
2017-09-30T05:58:52.723Z,101200.28
2017-09-30T06:04:02.236Z,101214.36
2017-09-30T06:09:04.345Z,101209.79
2017-09-30T06:14:06.947Z,101199.85
2017-09-30T06:19:10.287Z,101193.17
2017-09-30T06:24:12.963Z,101188.25
2017-09-30T06:29:15.366Z,101172.16
2017-09-30T06:34:18.053Z,101166.77
2017-09-30T06:39:20.678Z,101155.88
2017-09-30T06:44:24.271Z,101169.42
2017-09-30T06:49:26.923Z,101172.13
2017-09-30T06:54:31.797Z,101131.01
2017-09-30T06:59:34.885Z,101143.06
2017-09-30T07:04:39.731Z,101170.11
2017-09-30T07:09:46.838Z,101172.71
2017-09-30T07:14:51.093Z,101174.47
2017-09-30T07:19:57.357Z,101186.78
2017-09-30T07:25:01.667Z,101171.63
2017-09-30T07:30:04.340Z,101163.23
2017-09-30T07:35:08.556Z,101179.39
2017-09-30T07:40:10.797Z,101171.04
2017-09-30T07:45:13.070Z,101158.45
2017-09-30T07:50:15.572Z,101155.77
2017-09-30T07:55:18.654Z,101144.16
2017-09-30T08:00:21.333Z,101132.95
2017-09-30T08:05:23.707Z,101133.06
2017-09-30T08:10:26.394Z,101132.63
2017-09-30T08:15:29.059Z,101129.00
2017-09-30T08:20:31.562Z,101132.56
2017-09-30T08:25:34.196Z,101135.72
2017-09-30T08:30:36.375Z,101136.20
2017-09-30T08:35:39.047Z,101131.13
2017-09-30T08:40:41.666Z,101136.55
2017-09-30T08:45:45.143Z,101142.90
2017-09-30T08:50:47.838Z,101142.88
2017-09-30T08:55:51.423Z,101150.27
2017-09-30T09:00:54.482Z,101147.52
2017-09-30T09:05:58.626Z,101154.23
2017-09-30T09:11:02.271Z,101145.41
2017-09-30T09:16:06.158Z,101142.89
2017-09-30T09:21:09.939Z,101139.41
2017-09-30T09:26:13.865Z,101134.70
2017-09-30T09:31:17.218Z,101132.19
2017-09-30T09:36:21.340Z,101122.36
2017-09-30T09:41:25.045Z,101106.31
2017-09-30T09:46:28.943Z,101095.55
2017-09-30T09:51:32.228Z,101086.95
2017-09-30T09:56:35.512Z,101085.79
2017-09-30T10:01:37.700Z,101084.94
2017-09-30T10:06:42.295Z,101074.48
2017-09-30T10:11:45.987Z,101065.81
2017-09-30T10:16:52.225Z,101069.41
2017-09-30T10:22:00.074Z,101069.14
2017-09-30T10:27:04.246Z,101067.61
2017-09-30T10:32:07.219Z,101073.34
2017-09-30T10:37:10.631Z,101069.72
2017-09-30T10:42:13.898Z,101074.75
2017-09-30T10:47:16.041Z,101078.44
2017-09-30T10:52:18.936Z,101073.66
2017-09-30T10:57:21.716Z,101082.93
2017-09-30T11:02:24.414Z,101083.55
2017-09-30T11:07:27.025Z,101085.19
2017-09-30T11:12:29.699Z,101080.98
2017-09-30T11:17:32.841Z,101085.62
2017-09-30T11:22:35.501Z,101081.55
2017-09-30T11:27:37.944Z,101083.82
2017-09-30T11:32:40.536Z,101062.08
2017-09-30T11:37:44.056Z,101048.19
2017-09-30T11:42:47.506Z,101062.16
2017-09-30T11:47:50.221Z,101063.31
2017-09-30T11:52:52.320Z,101056.64
2017-09-30T11:57:55.078Z,101034.92
2017-09-30T12:02:59.613Z,101046.87
2017-09-30T12:08:04.251Z,101033.37
2017-09-30T12:13:06.751Z,101000.23
2017-09-30T12:18:09.419Z,101008.85
2017-09-30T12:23:12.017Z,100999.70
2017-09-30T12:28:14.739Z,100988.94
2017-09-30T12:33:19.964Z,100976.44
2017-09-30T12:38:23.519Z,100966.18
2017-09-30T12:43:26.252Z,100961.22
2017-09-30T12:48:28.724Z,100961.28
2017-09-30T12:53:31.356Z,100952.31
2017-09-30T12:58:34.058Z,100950.48
2017-09-30T13:03:36.457Z,100941.16
2017-09-30T13:08:39.037Z,100932.09
2017-09-30T13:13:41.284Z,100939.14
2017-09-30T13:18:43.822Z,100945.42
2017-09-30T13:23:46.353Z,100942.09
2017-09-30T13:28:48.954Z,100942.19
2017-09-30T13:33:51.539Z,100919.52
2017-09-30T13:38:54.274Z,100909.00
2017-09-30T13:43:56.937Z,100914.72
2017-09-30T13:48:59.364Z,100899.48
2017-09-30T13:54:02.081Z,100896.81
2017-09-30T13:59:04.669Z,100899.95
2017-09-30T14:04:07.502Z,100919.89
2017-09-30T14:09:09.824Z,100923.42
2017-09-30T14:14:12.163Z,100943.67
2017-09-30T14:19:14.714Z,100941.56
2017-09-30T14:24:18.083Z,100935.30
2017-09-30T14:29:20.431Z,100914.59
2017-09-30T14:34:23.027Z,100918.41
2017-09-30T14:39:25.664Z,100884.71
2017-09-30T14:44:28.100Z,100875.77
2017-09-30T14:49:30.838Z,100872.91
2017-09-30T14:54:33.470Z,100858.63
2017-09-30T14:59:36.438Z,100862.37
2017-09-30T15:04:39.842Z,100867.91
2017-09-30T15:09:42.532Z,100870.22
2017-09-30T15:14:45.150Z,100855.95
2017-09-30T15:19:47.578Z,100855.15
2017-09-30T15:24:49.974Z,100855.04
2017-09-30T15:29:52.588Z,100854.03
2017-09-30T15:34:55.045Z,100854.72
2017-09-30T15:39:57.550Z,100860.61
2017-09-30T15:44:59.747Z,100868.70
2017-09-30T15:50:02.457Z,100863.67
2017-09-30T15:55:05.937Z,100848.09
2017-09-30T16:00:08.416Z,100842.66
2017-09-30T16:05:14.414Z,100886.80
2017-09-30T16:10:17.162Z,100886.94
2017-09-30T16:15:19.640Z,100899.23
2017-09-30T16:20:22.261Z,100904.24
2017-09-30T16:25:26.158Z,100913.30
2017-09-30T16:30:32.828Z,100936.54
2017-09-30T16:35:41.385Z,100957.24
2017-09-30T16:40:44.654Z,100969.73
2017-09-30T16:45:48.063Z,101000.75
2017-09-30T16:50:50.587Z,101023.81
2017-09-30T16:55:53.220Z,101031.03
2017-09-30T17:00:55.559Z,101054.59
2017-09-30T17:05:57.880Z,101049.52
2017-09-30T17:11:01.207Z,101049.52
2017-09-30T17:16:03.415Z,101052.03
2017-09-30T17:21:06.799Z,101046.08
2017-09-30T17:26:10.049Z,101060.12
2017-09-30T17:31:12.659Z,101089.00
2017-09-30T17:36:15.310Z,101103.27
2017-09-30T17:41:17.739Z,101103.75
2017-09-30T17:46:27.757Z,101109.17
2017-09-30T17:51:34.651Z,101130.88
2017-09-30T17:56:42.606Z,101134.42
2017-09-30T18:01:48.990Z,101150.94
2017-09-30T18:06:51.647Z,101165.72
2017-09-30T18:11:55.124Z,101171.05
2017-09-30T18:16:58.518Z,101177.83
2017-09-30T18:22:01.131Z,101194.88
2017-09-30T18:27:03.781Z,101201.59
2017-09-30T18:32:06.298Z,101180.36
2017-09-30T18:37:09.064Z,101215.50
2017-09-30T18:42:11.797Z,101219.45
2017-09-30T18:47:14.200Z,101220.53
2017-09-30T18:52:16.642Z,101229.59
2017-09-30T18:57:19.232Z,101231.80
2017-09-30T19:02:21.473Z,101238.61
2017-09-30T19:07:23.767Z,101242.14
2017-09-30T19:12:32.120Z,101247.66
2017-09-30T19:17:36.112Z,101253.50
2017-09-30T19:22:44.616Z,101262.50
2017-09-30T19:27:47.422Z,101267.37
2017-09-30T19:32:49.919Z,101274.19
2017-09-30T19:37:53.263Z,101278.58
2017-09-30T19:42:55.690Z,101284.63
2017-09-30T19:47:58.170Z,101286.69
2017-09-30T19:53:00.790Z,101294.45
2017-09-30T19:58:03.397Z,101297.04
2017-09-30T20:03:06.063Z,101303.42
2017-09-30T20:08:08.423Z,101298.67
2017-09-30T20:13:10.736Z,101302.89
2017-09-30T20:18:14.687Z,101305.70
2017-09-30T20:23:17.253Z,101315.26
2017-09-30T20:28:19.580Z,101313.88
2017-09-30T20:33:22.127Z,101315.34
2017-09-30T20:38:24.780Z,101319.02
2017-09-30T20:43:27.321Z,101332.58
2017-09-30T20:48:30.679Z,101333.39
2017-09-30T20:53:32.975Z,101337.35
2017-09-30T20:58:35.222Z,101335.75
2017-09-30T21:03:38.041Z,101342.03
2017-09-30T21:08:40.632Z,101335.44
2017-09-30T21:13:44.735Z,101346.06
2017-09-30T21:18:48.196Z,101346.90
2017-09-30T21:23:50.623Z,101345.63
2017-09-30T21:28:52.992Z,101352.24
2017-09-30T21:33:55.516Z,101359.09
2017-09-30T21:39:05.144Z,101360.73
2017-09-30T21:44:07.695Z,101371.44
2017-09-30T21:49:10.253Z,101369.59
2017-09-30T21:54:12.588Z,101373.64
2017-09-30T21:59:15.765Z,101370.62
2017-09-30T22:04:19.062Z,101370.69
2017-09-30T22:09:21.998Z,101372.76
2017-09-30T22:14:24.494Z,101370.58
2017-09-30T22:19:27.127Z,101383.53
2017-09-30T22:24:30.262Z,101386.45
2017-09-30T22:29:32.746Z,101390.35
2017-09-30T22:34:35.325Z,101402.70
2017-09-30T22:39:37.607Z,101411.28
2017-09-30T22:44:39.879Z,101412.32
2017-09-30T22:49:42.425Z,101414.49
2017-09-30T22:54:44.733Z,101402.41
2017-09-30T22:59:47.262Z,101407.62
2017-09-30T23:04:49.890Z,101414.06
2017-09-30T23:09:52.592Z,101407.91
2017-09-30T23:14:55.100Z,101412.73
2017-09-30T23:19:58.102Z,101422.69
2017-09-30T23:25:00.190Z,101424.89
2017-09-30T23:30:02.568Z,101428.56
2017-09-30T23:35:05.168Z,101426.80
2017-09-30T23:40:07.772Z,101435.14
2017-09-30T23:45:10.003Z,101431.48
2017-09-30T23:50:12.354Z,101435.48
2017-09-30T23:55:15.025Z,101431.48
